sensor_id;sensor_type;location;lat;lon;timestamp;P1;durP1;ratioP1;P2;durP2;ratioP2
23280;SDS011;11809;56.390;-3.266;2022-07-29T00:01:01;2.42;;;2.17;;
23280;SDS011;11809;56.390;-3.266;2022-07-29T00:03:28;2.13;;;1.95;;
23280;SDS011;11809;56.390;-3.266;2022-07-29T00:05:55;2.20;;;2.00;;
23280;SDS011;11809;56.390;-3.266;2022-07-29T00:08:22;2.00;;;1.90;;
23280;SDS011;11809;56.390;-3.266;2022-07-29T00:10:50;1.90;;;1.80;;
23280;SDS011;11809;56.390;-3.266;2022-07-29T00:13:17;1.83;;;1.73;;
23280;SDS011;11809;56.390;-3.266;2022-07-29T00:15:57;1.98;;;1.85;;
23280;SDS011;11809;56.390;-3.266;2022-07-29T00:18:30;1.85;;;1.75;;
23280;SDS011;11809;56.390;-3.266;2022-07-29T00:20:57;1.58;;;1.48;;
23280;SDS011;11809;56.390;-3.266;2022-07-29T00:23:24;1.80;;;1.70;;
23280;SDS011;11809;56.390;-3.266;2022-07-29T00:25:51;1.90;;;1.80;;
23280;SDS011;11809;56.390;-3.266;2022-07-29T00:28:18;2.15;;;1.83;;
23280;SDS011;11809;56.390;-3.266;2022-07-29T00:30:45;1.85;;;1.75;;
23280;SDS011;11809;56.390;-3.266;2022-07-29T00:33:12;3.33;;;1.67;;
23280;SDS011;11809;56.390;-3.266;2022-07-29T00:35:39;1.60;;;1.50;;
23280;SDS011;11809;56.390;-3.266;2022-07-29T00:38:12;2.00;;;1.77;;
23280;SDS011;11809;56.390;-3.266;2022-07-29T00:40:43;2.20;;;1.80;;
23280;SDS011;11809;56.390;-3.266;2022-07-29T00:43:12;2.00;;;1.90;;
23280;SDS011;11809;56.390;-3.266;2022-07-29T00:45:40;1.85;;;1.75;;
23280;SDS011;11809;56.390;-3.266;2022-07-29T00:48:07;1.80;;;1.70;;
23280;SDS011;11809;56.390;-3.266;2022-07-29T00:50:35;2.00;;;1.85;;
23280;SDS011;11809;56.390;-3.266;2022-07-29T00:53:03;2.60;;;1.67;;
23280;SDS011;11809;56.390;-3.266;2022-07-29T00:55:32;1.70;;;1.60;;
23280;SDS011;11809;56.390;-3.266;2022-07-29T00:57:59;1.77;;;1.67;;
23280;SDS011;11809;56.390;-3.266;2022-07-29T01:00:27;1.65;;;1.55;;
23280;SDS011;11809;56.390;-3.266;2022-07-29T01:02:55;1.83;;;1.73;;
23280;SDS011;11809;56.390;-3.266;2022-07-29T01:05:23;2.70;;;2.00;;
23280;SDS011;11809;56.390;-3.266;2022-07-29T01:08:13;2.40;;;1.98;;
23280;SDS011;11809;56.390;-3.266;2022-07-29T01:10:41;3.22;;;1.90;;
23280;SDS011;11809;56.390;-3.266;2022-07-29T01:13:10;2.42;;;2.22;;
23280;SDS011;11809;56.390;-3.266;2022-07-29T01:15:41;2.42;;;2.22;;
23280;SDS011;11809;56.390;-3.266;2022-07-29T01:18:28;1.70;;;1.60;;
23280;SDS011;11809;56.390;-3.266;2022-07-29T01:23:50;2.38;;;1.83;;
23280;SDS011;11809;56.390;-3.266;2022-07-29T01:35:04;1.70;;;1.60;;
23280;SDS011;11809;56.390;-3.266;2022-07-29T01:37:44;3.42;;;1.88;;
23280;SDS011;11809;56.390;-3.266;2022-07-29T01:40:27;2.58;;;1.95;;
23280;SDS011;11809;56.390;-3.266;2022-07-29T01:43:00;1.70;;;1.60;;
23280;SDS011;11809;56.390;-3.266;2022-07-29T01:45:40;4.13;;;1.80;;
23280;SDS011;11809;56.390;-3.266;2022-07-29T01:50:58;1.70;;;1.60;;
23280;SDS011;11809;56.390;-3.266;2022-07-29T01:53:35;2.20;;;1.77;;
23280;SDS011;11809;56.390;-3.266;2022-07-29T01:56:09;1.52;;;1.42;;
23280;SDS011;11809;56.390;-3.266;2022-07-29T01:58:39;1.50;;;1.40;;
23280;SDS011;11809;56.390;-3.266;2022-07-29T02:01:09;2.30;;;1.50;;
23280;SDS011;11809;56.390;-3.266;2022-07-29T02:03:38;1.92;;;1.45;;
23280;SDS011;11809;56.390;-3.266;2022-07-29T02:06:09;3.45;;;1.90;;
23280;SDS011;11809;56.390;-3.266;2022-07-29T02:08:37;1.80;;;1.70;;
23280;SDS011;11809;56.390;-3.266;2022-07-29T02:11:06;1.70;;;1.60;;
23280;SDS011;11809;56.390;-3.266;2022-07-29T02:13:35;1.73;;;1.63;;
23280;SDS011;11809;56.390;-3.266;2022-07-29T02:16:04;1.67;;;1.58;;
23280;SDS011;11809;56.390;-3.266;2022-07-29T02:18:33;2.25;;;1.75;;
23280;SDS011;11809;56.390;-3.266;2022-07-29T02:21:03;1.75;;;1.60;;
23280;SDS011;11809;56.390;-3.266;2022-07-29T02:23:40;1.73;;;1.63;;
23280;SDS011;11809;56.390;-3.266;2022-07-29T02:26:16;1.85;;;1.75;;
23280;SDS011;11809;56.390;-3.266;2022-07-29T02:28:46;2.05;;;1.85;;
23280;SDS011;11809;56.390;-3.266;2022-07-29T02:31:15;3.00;;;1.75;;
23280;SDS011;11809;56.390;-3.266;2022-07-29T02:33:46;2.65;;;1.80;;
23280;SDS011;11809;56.390;-3.266;2022-07-29T02:36:14;3.05;;;1.88;;
23280;SDS011;11809;56.390;-3.266;2022-07-29T02:38:42;2.25;;;1.80;;
23280;SDS011;11809;56.390;-3.266;2022-07-29T02:41:26;2.08;;;1.90;;
23280;SDS011;11809;56.390;-3.266;2022-07-29T02:43:57;2.28;;;1.80;;
23280;SDS011;11809;56.390;-3.266;2022-07-29T02:46:32;3.05;;;1.95;;
23280;SDS011;11809;56.390;-3.266;2022-07-29T02:52:00;3.05;;;1.90;;
23280;SDS011;11809;56.390;-3.266;2022-07-29T02:56:57;1.98;;;1.85;;
23280;SDS011;11809;56.390;-3.266;2022-07-29T02:59:27;2.55;;;1.80;;
23280;SDS011;11809;56.390;-3.266;2022-07-29T03:01:57;2.80;;;1.90;;
23280;SDS011;11809;56.390;-3.266;2022-07-29T03:04:25;2.05;;;1.85;;
23280;SDS011;11809;56.390;-3.266;2022-07-29T03:09:25;2.10;;;1.90;;
23280;SDS011;11809;56.390;-3.266;2022-07-29T03:11:54;2.05;;;1.92;;
23280;SDS011;11809;56.390;-3.266;2022-07-29T03:14:22;1.80;;;1.70;;
23280;SDS011;11809;56.390;-3.266;2022-07-29T03:16:50;2.13;;;1.88;;
23280;SDS011;11809;56.390;-3.266;2022-07-29T03:19:18;2.20;;;2.00;;
23280;SDS011;11809;56.390;-3.266;2022-07-29T03:21:46;2.28;;;1.73;;
23280;SDS011;11809;56.390;-3.266;2022-07-29T03:24:30;2.58;;;1.95;;
23280;SDS011;11809;56.390;-3.266;2022-07-29T03:26:57;2.72;;;1.95;;
23280;SDS011;11809;56.390;-3.266;2022-07-29T03:29:24;2.30;;;2.10;;
23280;SDS011;11809;56.390;-3.266;2022-07-29T03:31:59;2.20;;;2.10;;
23280;SDS011;11809;56.390;-3.266;2022-07-29T03:34:32;2.10;;;1.80;;
23280;SDS011;11809;56.390;-3.266;2022-07-29T03:36:59;2.85;;;2.20;;
23280;SDS011;11809;56.390;-3.266;2022-07-29T03:39:27;2.50;;;2.28;;
23280;SDS011;11809;56.390;-3.266;2022-07-29T03:41:57;2.88;;;2.20;;
23280;SDS011;11809;56.390;-3.266;2022-07-29T03:44:27;1.80;;;1.70;;
23280;SDS011;11809;56.390;-3.266;2022-07-29T03:46:55;2.40;;;2.20;;
23280;SDS011;11809;56.390;-3.266;2022-07-29T03:49:26;3.78;;;2.10;;
23280;SDS011;11809;56.390;-3.266;2022-07-29T03:51:54;2.47;;;2.20;;
23280;SDS011;11809;56.390;-3.266;2022-07-29T03:54:21;2.67;;;2.20;;
23280;SDS011;11809;56.390;-3.266;2022-07-29T03:56:49;2.10;;;1.92;;
23280;SDS011;11809;56.390;-3.266;2022-07-29T03:59:18;2.38;;;1.88;;
23280;SDS011;11809;56.390;-3.266;2022-07-29T04:01:47;2.58;;;2.00;;
23280;SDS011;11809;56.390;-3.266;2022-07-29T04:04:15;2.22;;;1.85;;
23280;SDS011;11809;56.390;-3.266;2022-07-29T04:06:43;2.22;;;2.13;;
23280;SDS011;11809;56.390;-3.266;2022-07-29T04:09:13;2.33;;;2.13;;
23280;SDS011;11809;56.390;-3.266;2022-07-29T04:11:41;2.53;;;1.98;;
23280;SDS011;11809;56.390;-3.266;2022-07-29T04:14:28;1.92;;;1.70;;
23280;SDS011;11809;56.390;-3.266;2022-07-29T04:16:55;2.08;;;1.98;;
23280;SDS011;11809;56.390;-3.266;2022-07-29T04:19:22;3.97;;;1.85;;
23280;SDS011;11809;56.390;-3.266;2022-07-29T04:21:49;2.20;;;2.00;;
23280;SDS011;11809;56.390;-3.266;2022-07-29T04:24:16;1.92;;;1.80;;
23280;SDS011;11809;56.390;-3.266;2022-07-29T04:26:45;2.10;;;1.80;;
23280;SDS011;11809;56.390;-3.266;2022-07-29T04:29:12;2.78;;;2.00;;
23280;SDS011;11809;56.390;-3.266;2022-07-29T04:31:41;2.38;;;1.70;;
23280;SDS011;11809;56.390;-3.266;2022-07-29T04:34:08;2.92;;;1.95;;
23280;SDS011;11809;56.390;-3.266;2022-07-29T04:36:36;2.10;;;1.90;;
23280;SDS011;11809;56.390;-3.266;2022-07-29T04:39:03;2.15;;;1.95;;
23280;SDS011;11809;56.390;-3.266;2022-07-29T04:41:30;3.40;;;2.00;;
23280;SDS011;11809;56.390;-3.266;2022-07-29T04:43:58;2.10;;;1.90;;
23280;SDS011;11809;56.390;-3.266;2022-07-29T04:46:27;2.22;;;1.80;;
23280;SDS011;11809;56.390;-3.266;2022-07-29T04:48:54;3.28;;;1.90;;
23280;SDS011;11809;56.390;-3.266;2022-07-29T04:51:21;1.92;;;1.83;;
23280;SDS011;11809;56.390;-3.266;2022-07-29T04:53:48;2.25;;;1.80;;
23280;SDS011;11809;56.390;-3.266;2022-07-29T04:56:15;1.88;;;1.65;;
23280;SDS011;11809;56.390;-3.266;2022-07-29T04:58:42;2.33;;;1.70;;
23280;SDS011;11809;56.390;-3.266;2022-07-29T05:01:09;2.28;;;1.70;;
23280;SDS011;11809;56.390;-3.266;2022-07-29T05:03:36;1.88;;;1.77;;
23280;SDS011;11809;56.390;-3.266;2022-07-29T05:06:03;2.33;;;2.13;;
23280;SDS011;11809;56.390;-3.266;2022-07-29T05:08:29;3.22;;;1.70;;
23280;SDS011;11809;56.390;-3.266;2022-07-29T05:10:56;3.10;;;1.80;;
23280;SDS011;11809;56.390;-3.266;2022-07-29T05:13:37;1.97;;;1.87;;
23280;SDS011;11809;56.390;-3.266;2022-07-29T05:16:11;1.90;;;1.80;;
23280;SDS011;11809;56.390;-3.266;2022-07-29T05:18:39;3.40;;;2.00;;
23280;SDS011;11809;56.390;-3.266;2022-07-29T05:21:07;2.50;;;1.65;;
23280;SDS011;11809;56.390;-3.266;2022-07-29T05:23:33;3.90;;;2.10;;
23280;SDS011;11809;56.390;-3.266;2022-07-29T05:26:00;3.10;;;2.30;;
23280;SDS011;11809;56.390;-3.266;2022-07-29T05:28:28;2.60;;;1.77;;
23280;SDS011;11809;56.390;-3.266;2022-07-29T05:30:55;3.60;;;1.90;;
23280;SDS011;11809;56.390;-3.266;2022-07-29T05:33:22;4.20;;;1.95;;
23280;SDS011;11809;56.390;-3.266;2022-07-29T05:36:03;2.15;;;1.95;;
23280;SDS011;11809;56.390;-3.266;2022-07-29T05:38:32;2.67;;;1.83;;
23280;SDS011;11809;56.390;-3.266;2022-07-29T05:40:59;2.20;;;2.10;;
23280;SDS011;11809;56.390;-3.266;2022-07-29T05:43:27;3.00;;;1.90;;
23280;SDS011;11809;56.390;-3.266;2022-07-29T05:45:55;2.90;;;1.95;;
23280;SDS011;11809;56.390;-3.266;2022-07-29T05:48:23;3.20;;;1.80;;
23280;SDS011;11809;56.390;-3.266;2022-07-29T05:50:50;2.65;;;1.80;;
23280;SDS011;11809;56.390;-3.266;2022-07-29T05:53:17;3.47;;;1.90;;
23280;SDS011;11809;56.390;-3.266;2022-07-29T05:55:46;3.85;;;1.92;;
23280;SDS011;11809;56.390;-3.266;2022-07-29T05:58:14;2.28;;;1.65;;
23280;SDS011;11809;56.390;-3.266;2022-07-29T06:00:41;2.28;;;1.80;;
23280;SDS011;11809;56.390;-3.266;2022-07-29T06:03:08;4.03;;;2.20;;
23280;SDS011;11809;56.390;-3.266;2022-07-29T06:05:35;2.00;;;1.90;;
23280;SDS011;11809;56.390;-3.266;2022-07-29T06:08:03;3.05;;;1.88;;
23280;SDS011;11809;56.390;-3.266;2022-07-29T06:10:32;2.75;;;2.20;;
23280;SDS011;11809;56.390;-3.266;2022-07-29T06:13:00;2.97;;;1.90;;
23280;SDS011;11809;56.390;-3.266;2022-07-29T06:15:28;4.40;;;1.92;;
23280;SDS011;11809;56.390;-3.266;2022-07-29T06:17:55;2.30;;;1.77;;
23280;SDS011;11809;56.390;-3.266;2022-07-29T06:20:25;1.93;;;1.80;;
23280;SDS011;11809;56.390;-3.266;2022-07-29T06:22:53;2.08;;;1.70;;
23280;SDS011;11809;56.390;-3.266;2022-07-29T06:25:20;1.67;;;1.58;;
23280;SDS011;11809;56.390;-3.266;2022-07-29T06:27:47;3.88;;;1.95;;
23280;SDS011;11809;56.390;-3.266;2022-07-29T06:30:14;1.67;;;1.58;;
23280;SDS011;11809;56.390;-3.266;2022-07-29T06:32:41;1.88;;;1.77;;
23280;SDS011;11809;56.390;-3.266;2022-07-29T06:35:08;2.78;;;2.10;;
23280;SDS011;11809;56.390;-3.266;2022-07-29T06:37:55;1.90;;;1.70;;
23280;SDS011;11809;56.390;-3.266;2022-07-29T06:40:25;2.03;;;1.70;;
23280;SDS011;11809;56.390;-3.266;2022-07-29T06:43:10;2.00;;;1.73;;
23280;SDS011;11809;56.390;-3.266;2022-07-29T06:45:37;1.77;;;1.67;;
23280;SDS011;11809;56.390;-3.266;2022-07-29T06:48:08;3.25;;;1.77;;
23280;SDS011;11809;56.390;-3.266;2022-07-29T06:50:36;2.40;;;1.73;;
23280;SDS011;11809;56.390;-3.266;2022-07-29T06:53:03;2.15;;;1.92;;
23280;SDS011;11809;56.390;-3.266;2022-07-29T06:55:30;2.08;;;1.88;;
23280;SDS011;11809;56.390;-3.266;2022-07-29T06:57:57;1.80;;;1.70;;
23280;SDS011;11809;56.390;-3.266;2022-07-29T07:00:24;2.60;;;1.90;;
23280;SDS011;11809;56.390;-3.266;2022-07-29T07:02:51;2.42;;;1.90;;
23280;SDS011;11809;56.390;-3.266;2022-07-29T07:05:18;1.88;;;1.77;;
23280;SDS011;11809;56.390;-3.266;2022-07-29T07:07:45;4.45;;;1.95;;
23280;SDS011;11809;56.390;-3.266;2022-07-29T07:10:12;2.20;;;2.00;;
23280;SDS011;11809;56.390;-3.266;2022-07-29T07:12:39;1.70;;;1.55;;
23280;SDS011;11809;56.390;-3.266;2022-07-29T07:15:06;3.47;;;1.75;;
23280;SDS011;11809;56.390;-3.266;2022-07-29T07:17:33;2.05;;;1.73;;
23280;SDS011;11809;56.390;-3.266;2022-07-29T07:20:00;1.88;;;1.60;;
23280;SDS011;11809;56.390;-3.266;2022-07-29T07:22:27;2.55;;;1.90;;
23280;SDS011;11809;56.390;-3.266;2022-07-29T07:24:54;1.90;;;1.80;;
23280;SDS011;11809;56.390;-3.266;2022-07-29T07:27:21;2.08;;;1.90;;
23280;SDS011;11809;56.390;-3.266;2022-07-29T07:29:48;2.08;;;1.98;;
23280;SDS011;11809;56.390;-3.266;2022-07-29T07:32:15;1.77;;;1.67;;
23280;SDS011;11809;56.390;-3.266;2022-07-29T07:34:43;2.08;;;1.98;;
23280;SDS011;11809;56.390;-3.266;2022-07-29T07:37:09;2.17;;;1.90;;
23280;SDS011;11809;56.390;-3.266;2022-07-29T07:39:37;2.22;;;1.58;;
23280;SDS011;11809;56.390;-3.266;2022-07-29T07:42:04;3.60;;;1.67;;
23280;SDS011;11809;56.390;-3.266;2022-07-29T07:44:31;5.13;;;1.67;;
23280;SDS011;11809;56.390;-3.266;2022-07-29T07:47:11;2.17;;;1.80;;
23280;SDS011;11809;56.390;-3.266;2022-07-29T07:49:40;16.55;;;2.30;;
23280;SDS011;11809;56.390;-3.266;2022-07-29T07:52:10;2.25;;;1.70;;
23280;SDS011;11809;56.390;-3.266;2022-07-29T07:54:37;2.58;;;1.80;;
23280;SDS011;11809;56.390;-3.266;2022-07-29T07:57:04;1.80;;;1.70;;
23280;SDS011;11809;56.390;-3.266;2022-07-29T07:59:31;2.38;;;1.80;;
23280;SDS011;11809;56.390;-3.266;2022-07-29T08:01:58;1.80;;;1.70;;
23280;SDS011;11809;56.390;-3.266;2022-07-29T08:04:25;1.70;;;1.60;;
23280;SDS011;11809;56.390;-3.266;2022-07-29T08:06:55;3.00;;;1.50;;
23280;SDS011;11809;56.390;-3.266;2022-07-29T08:09:24;1.60;;;1.50;;
23280;SDS011;11809;56.390;-3.266;2022-07-29T08:11:56;2.17;;;1.77;;
23280;SDS011;11809;56.390;-3.266;2022-07-29T08:14:24;1.92;;;1.70;;
23280;SDS011;11809;56.390;-3.266;2022-07-29T08:16:51;1.45;;;1.35;;
23280;SDS011;11809;56.390;-3.266;2022-07-29T08:19:19;2.00;;;1.90;;
23280;SDS011;11809;56.390;-3.266;2022-07-29T08:21:46;2.13;;;1.55;;
23280;SDS011;11809;56.390;-3.266;2022-07-29T08:24:14;1.80;;;1.50;;
23280;SDS011;11809;56.390;-3.266;2022-07-29T08:27:00;1.70;;;1.60;;
23280;SDS011;11809;56.390;-3.266;2022-07-29T08:29:27;1.83;;;1.50;;
23280;SDS011;11809;56.390;-3.266;2022-07-29T08:31:54;1.45;;;1.35;;
23280;SDS011;11809;56.390;-3.266;2022-07-29T08:34:22;1.92;;;1.50;;
23280;SDS011;11809;56.390;-3.266;2022-07-29T08:36:53;1.67;;;1.50;;
23280;SDS011;11809;56.390;-3.266;2022-07-29T08:39:20;1.40;;;1.30;;
23280;SDS011;11809;56.390;-3.266;2022-07-29T08:41:47;1.40;;;1.30;;
23280;SDS011;11809;56.390;-3.266;2022-07-29T08:44:22;1.23;;;1.23;;
23280;SDS011;11809;56.390;-3.266;2022-07-29T08:46:56;1.83;;;1.60;;
23280;SDS011;11809;56.390;-3.266;2022-07-29T08:49:23;1.17;;;1.17;;
23280;SDS011;11809;56.390;-3.266;2022-07-29T08:51:50;1.42;;;1.33;;
23280;SDS011;11809;56.390;-3.266;2022-07-29T08:54:20;1.70;;;1.38;;
23280;SDS011;11809;56.390;-3.266;2022-07-29T08:56:50;2.00;;;1.23;;
23280;SDS011;11809;56.390;-3.266;2022-07-29T08:59:20;1.67;;;1.30;;
23280;SDS011;11809;56.390;-3.266;2022-07-29T09:04:20;1.45;;;1.38;;
23280;SDS011;11809;56.390;-3.266;2022-07-29T09:06:49;1.65;;;1.55;;
23280;SDS011;11809;56.390;-3.266;2022-07-29T09:09:18;1.45;;;1.35;;
23280;SDS011;11809;56.390;-3.266;2022-07-29T09:11:45;1.52;;;1.42;;
23280;SDS011;11809;56.390;-3.266;2022-07-29T09:14:13;1.17;;;1.13;;
23280;SDS011;11809;56.390;-3.266;2022-07-29T09:16:44;1.42;;;1.17;;
23280;SDS011;11809;56.390;-3.266;2022-07-29T09:19:33;1.52;;;1.42;;
23280;SDS011;11809;56.390;-3.266;2022-07-29T09:22:05;2.15;;;1.40;;
23280;SDS011;11809;56.390;-3.266;2022-07-29T09:24:43;1.60;;;1.20;;
23280;SDS011;11809;56.390;-3.266;2022-07-29T09:30:01;1.95;;;1.30;;
23280;SDS011;11809;56.390;-3.266;2022-07-29T09:32:33;1.23;;;1.20;;
23280;SDS011;11809;56.390;-3.266;2022-07-29T09:35:21;1.52;;;1.10;;
23280;SDS011;11809;56.390;-3.266;2022-07-29T09:37:49;1.73;;;1.10;;
23280;SDS011;11809;56.390;-3.266;2022-07-29T09:40:17;1.45;;;1.17;;
23280;SDS011;11809;56.390;-3.266;2022-07-29T09:42:49;1.08;;;1.08;;
23280;SDS011;11809;56.390;-3.266;2022-07-29T09:45:30;0.98;;;0.98;;
23280;SDS011;11809;56.390;-3.266;2022-07-29T09:47:58;2.35;;;1.10;;
23280;SDS011;11809;56.390;-3.266;2022-07-29T09:50:39;1.07;;;1.07;;
23280;SDS011;11809;56.390;-3.266;2022-07-29T09:53:07;1.20;;;1.00;;
23280;SDS011;11809;56.390;-3.266;2022-07-29T09:55:50;1.25;;;1.00;;
23280;SDS011;11809;56.390;-3.266;2022-07-29T09:58:18;1.38;;;1.10;;
23280;SDS011;11809;56.390;-3.266;2022-07-29T10:00:47;1.20;;;1.10;;
23280;SDS011;11809;56.390;-3.266;2022-07-29T10:03:16;1.08;;;1.00;;
23280;SDS011;11809;56.390;-3.266;2022-07-29T10:05:44;1.35;;;1.10;;
23280;SDS011;11809;56.390;-3.266;2022-07-29T10:08:12;1.30;;;1.20;;
23280;SDS011;11809;56.390;-3.266;2022-07-29T10:10:40;1.10;;;1.10;;
23280;SDS011;11809;56.390;-3.266;2022-07-29T10:13:10;1.25;;;1.15;;
23280;SDS011;11809;56.390;-3.266;2022-07-29T10:15:42;1.20;;;1.17;;
23280;SDS011;11809;56.390;-3.266;2022-07-29T10:18:13;0.93;;;0.93;;
23280;SDS011;11809;56.390;-3.266;2022-07-29T10:23:10;0.98;;;0.98;;
23280;SDS011;11809;56.390;-3.266;2022-07-29T10:25:39;1.20;;;1.10;;
23280;SDS011;11809;56.390;-3.266;2022-07-29T10:28:11;1.48;;;1.00;;
23280;SDS011;11809;56.390;-3.266;2022-07-29T10:30:42;0.90;;;0.90;;
23280;SDS011;11809;56.390;-3.266;2022-07-29T10:33:16;1.10;;;1.00;;
23280;SDS011;11809;56.390;-3.266;2022-07-29T10:44:13;1.00;;;1.00;;
23280;SDS011;11809;56.390;-3.266;2022-07-29T10:46:49;1.05;;;1.00;;
23280;SDS011;11809;56.390;-3.266;2022-07-29T10:49:18;1.27;;;1.15;;
23280;SDS011;11809;56.390;-3.266;2022-07-29T11:00:25;1.33;;;1.17;;
23280;SDS011;11809;56.390;-3.266;2022-07-29T11:02:54;0.90;;;0.90;;
23280;SDS011;11809;56.390;-3.266;2022-07-29T11:05:23;1.10;;;1.00;;
23280;SDS011;11809;56.390;-3.266;2022-07-29T11:10:52;1.00;;;1.00;;
23280;SDS011;11809;56.390;-3.266;2022-07-29T11:13:46;1.30;;;1.20;;
23280;SDS011;11809;56.390;-3.266;2022-07-29T11:16:19;0.82;;;0.82;;
23280;SDS011;11809;56.390;-3.266;2022-07-29T11:21:55;0.93;;;0.93;;
23280;SDS011;11809;56.390;-3.266;2022-07-29T11:24:28;1.00;;;1.00;;
23280;SDS011;11809;56.390;-3.266;2022-07-29T11:29:51;0.80;;;0.80;;
23280;SDS011;11809;56.390;-3.266;2022-07-29T11:32:24;0.90;;;0.90;;
23280;SDS011;11809;56.390;-3.266;2022-07-29T11:43:49;1.00;;;0.90;;
23280;SDS011;11809;56.390;-3.266;2022-07-29T11:49:19;0.82;;;0.82;;
23280;SDS011;11809;56.390;-3.266;2022-07-29T11:51:58;0.88;;;0.88;;
23280;SDS011;11809;56.390;-3.266;2022-07-29T11:54:32;0.93;;;0.90;;
23280;SDS011;11809;56.390;-3.266;2022-07-29T11:57:20;0.80;;;0.80;;
23280;SDS011;11809;56.390;-3.266;2022-07-29T11:59:47;0.80;;;0.80;;
23280;SDS011;11809;56.390;-3.266;2022-07-29T12:02:16;0.93;;;0.90;;
23280;SDS011;11809;56.390;-3.266;2022-07-29T12:05:02;1.15;;;1.10;;
23280;SDS011;11809;56.390;-3.266;2022-07-29T12:07:37;0.85;;;0.85;;
23280;SDS011;11809;56.390;-3.266;2022-07-29T12:10:10;0.90;;;0.90;;
23280;SDS011;11809;56.390;-3.266;2022-07-29T12:12:55;1.55;;;1.00;;
23280;SDS011;11809;56.390;-3.266;2022-07-29T12:15:22;1.10;;;1.10;;
23280;SDS011;11809;56.390;-3.266;2022-07-29T12:18:11;1.00;;;1.00;;
23280;SDS011;11809;56.390;-3.266;2022-07-29T12:20:43;0.90;;;0.90;;
23280;SDS011;11809;56.390;-3.266;2022-07-29T12:23:11;1.05;;;0.85;;
23280;SDS011;11809;56.390;-3.266;2022-07-29T12:25:42;0.90;;;0.90;;
23280;SDS011;11809;56.390;-3.266;2022-07-29T12:28:15;0.90;;;0.90;;
23280;SDS011;11809;56.390;-3.266;2022-07-29T12:30:52;1.05;;;0.93;;
23280;SDS011;11809;56.390;-3.266;2022-07-29T12:33:23;0.90;;;0.90;;
23280;SDS011;11809;56.390;-3.266;2022-07-29T12:36:00;0.90;;;0.90;;
23280;SDS011;11809;56.390;-3.266;2022-07-29T12:38:34;1.00;;;1.00;;
23280;SDS011;11809;56.390;-3.266;2022-07-29T12:41:02;2.08;;;0.98;;
23280;SDS011;11809;56.390;-3.266;2022-07-29T12:43:30;0.82;;;0.82;;
23280;SDS011;11809;56.390;-3.266;2022-07-29T12:45:57;1.10;;;0.90;;
23280;SDS011;11809;56.390;-3.266;2022-07-29T12:48:40;1.23;;;1.13;;
23280;SDS011;11809;56.390;-3.266;2022-07-29T12:51:09;1.02;;;0.98;;
23280;SDS011;11809;56.390;-3.266;2022-07-29T12:53:38;0.90;;;0.90;;
23280;SDS011;11809;56.390;-3.266;2022-07-29T12:56:06;0.98;;;0.98;;
23280;SDS011;11809;56.390;-3.266;2022-07-29T12:59:10;1.08;;;1.08;;
23280;SDS011;11809;56.390;-3.266;2022-07-29T13:01:52;1.67;;;1.00;;
23280;SDS011;11809;56.390;-3.266;2022-07-29T13:04:29;0.90;;;0.90;;
23280;SDS011;11809;56.390;-3.266;2022-07-29T13:07:03;7.13;;;1.50;;
23280;SDS011;11809;56.390;-3.266;2022-07-29T13:09:39;2.72;;;1.83;;
23280;SDS011;11809;56.390;-3.266;2022-07-29T13:12:08;4.78;;;1.45;;
23280;SDS011;11809;56.390;-3.266;2022-07-29T13:17:06;2.35;;;1.70;;
23280;SDS011;11809;56.390;-3.266;2022-07-29T13:19:48;3.03;;;1.80;;
23280;SDS011;11809;56.390;-3.266;2022-07-29T13:22:17;3.42;;;1.85;;
23280;SDS011;11809;56.390;-3.266;2022-07-29T13:24:46;4.72;;;1.80;;
23280;SDS011;11809;56.390;-3.266;2022-07-29T13:27:14;3.22;;;2.08;;
23280;SDS011;11809;56.390;-3.266;2022-07-29T13:29:42;8.77;;;2.28;;
23280;SDS011;11809;56.390;-3.266;2022-07-29T13:32:10;1.85;;;1.75;;
23280;SDS011;11809;56.390;-3.266;2022-07-29T13:34:38;1.98;;;1.80;;
23280;SDS011;11809;56.390;-3.266;2022-07-29T13:37:06;2.20;;;1.80;;
23280;SDS011;11809;56.390;-3.266;2022-07-29T13:39:33;3.45;;;2.00;;
23280;SDS011;11809;56.390;-3.266;2022-07-29T13:42:01;4.10;;;2.22;;
23280;SDS011;11809;56.390;-3.266;2022-07-29T13:44:28;3.55;;;2.00;;
23280;SDS011;11809;56.390;-3.266;2022-07-29T13:46:55;4.25;;;1.75;;
23280;SDS011;11809;56.390;-3.266;2022-07-29T13:49:22;6.78;;;2.00;;
23280;SDS011;11809;56.390;-3.266;2022-07-29T13:51:51;2.25;;;1.75;;
23280;SDS011;11809;56.390;-3.266;2022-07-29T13:54:18;2.75;;;1.98;;
23280;SDS011;11809;56.390;-3.266;2022-07-29T13:56:45;7.75;;;1.98;;
23280;SDS011;11809;56.390;-3.266;2022-07-29T13:59:12;3.22;;;1.80;;
23280;SDS011;11809;56.390;-3.266;2022-07-29T14:01:39;4.18;;;1.90;;
23280;SDS011;11809;56.390;-3.266;2022-07-29T14:04:10;6.68;;;2.03;;
23280;SDS011;11809;56.390;-3.266;2022-07-29T14:06:38;11.40;;;2.05;;
23280;SDS011;11809;56.390;-3.266;2022-07-29T14:09:05;3.08;;;1.67;;
23280;SDS011;11809;56.390;-3.266;2022-07-29T14:11:32;2.33;;;1.90;;
23280;SDS011;11809;56.390;-3.266;2022-07-29T14:13:59;3.30;;;1.92;;
23280;SDS011;11809;56.390;-3.266;2022-07-29T14:16:26;2.00;;;1.55;;
23280;SDS011;11809;56.390;-3.266;2022-07-29T14:18:53;1.80;;;1.70;;
23280;SDS011;11809;56.390;-3.266;2022-07-29T14:21:20;2.33;;;1.90;;
23280;SDS011;11809;56.390;-3.266;2022-07-29T14:23:47;2.33;;;1.65;;
23280;SDS011;11809;56.390;-3.266;2022-07-29T14:26:15;4.03;;;1.80;;
23280;SDS011;11809;56.390;-3.266;2022-07-29T14:28:47;2.10;;;1.75;;
23280;SDS011;11809;56.390;-3.266;2022-07-29T14:31:14;2.22;;;1.70;;
23280;SDS011;11809;56.390;-3.266;2022-07-29T14:33:41;2.40;;;1.70;;
23280;SDS011;11809;56.390;-3.266;2022-07-29T14:36:11;2.35;;;2.13;;
23280;SDS011;11809;56.390;-3.266;2022-07-29T14:38:38;1.55;;;1.45;;
23280;SDS011;11809;56.390;-3.266;2022-07-29T14:41:07;3.33;;;2.05;;
23280;SDS011;11809;56.390;-3.266;2022-07-29T14:43:34;2.83;;;2.10;;
23280;SDS011;11809;56.390;-3.266;2022-07-29T14:46:01;2.88;;;1.83;;
23280;SDS011;11809;56.390;-3.266;2022-07-29T14:48:33;4.60;;;1.80;;
23280;SDS011;11809;56.390;-3.266;2022-07-29T14:51:00;2.30;;;1.75;;
23280;SDS011;11809;56.390;-3.266;2022-07-29T14:53:30;5.93;;;1.95;;
23280;SDS011;11809;56.390;-3.266;2022-07-29T14:55:57;3.58;;;1.98;;
23280;SDS011;11809;56.390;-3.266;2022-07-29T14:58:44;2.40;;;1.83;;
23280;SDS011;11809;56.390;-3.266;2022-07-29T15:01:17;1.90;;;1.70;;
23280;SDS011;11809;56.390;-3.266;2022-07-29T15:03:44;4.20;;;1.70;;
23280;SDS011;11809;56.390;-3.266;2022-07-29T15:06:11;1.60;;;1.50;;
23280;SDS011;11809;56.390;-3.266;2022-07-29T15:08:38;4.57;;;1.75;;
23280;SDS011;11809;56.390;-3.266;2022-07-29T15:11:05;2.28;;;1.42;;
23280;SDS011;11809;56.390;-3.266;2022-07-29T15:13:32;4.95;;;2.17;;
23280;SDS011;11809;56.390;-3.266;2022-07-29T15:16:04;3.63;;;2.00;;
23280;SDS011;11809;56.390;-3.266;2022-07-29T15:18:31;1.77;;;1.65;;
23280;SDS011;11809;56.390;-3.266;2022-07-29T15:20:58;1.52;;;1.42;;
23280;SDS011;11809;56.390;-3.266;2022-07-29T15:23:27;2.05;;;1.70;;
23280;SDS011;11809;56.390;-3.266;2022-07-29T15:25:54;2.67;;;1.48;;
23280;SDS011;11809;56.390;-3.266;2022-07-29T15:28:21;4.10;;;1.77;;
23280;SDS011;11809;56.390;-3.266;2022-07-29T15:30:48;2.83;;;2.00;;
23280;SDS011;11809;56.390;-3.266;2022-07-29T15:33:15;4.63;;;1.75;;
23280;SDS011;11809;56.390;-3.266;2022-07-29T15:35:42;2.50;;;1.60;;
23280;SDS011;11809;56.390;-3.266;2022-07-29T15:38:09;3.78;;;1.63;;
23280;SDS011;11809;56.390;-3.266;2022-07-29T15:40:37;12.00;;;2.22;;
23280;SDS011;11809;56.390;-3.266;2022-07-29T15:43:05;7.07;;;2.40;;
23280;SDS011;11809;56.390;-3.266;2022-07-29T15:45:36;7.97;;;1.63;;
23280;SDS011;11809;56.390;-3.266;2022-07-29T15:48:08;2.75;;;1.80;;
23280;SDS011;11809;56.390;-3.266;2022-07-29T15:50:40;8.77;;;1.98;;
23280;SDS011;11809;56.390;-3.266;2022-07-29T15:53:07;5.57;;;1.80;;
23280;SDS011;11809;56.390;-3.266;2022-07-29T15:55:34;28.92;;;3.33;;
23280;SDS011;11809;56.390;-3.266;2022-07-29T15:58:01;5.70;;;1.77;;
23280;SDS011;11809;56.390;-3.266;2022-07-29T16:00:28;6.75;;;1.80;;